Список аэропортов
Фактическая погода:

26 июня, 23:30
Температура: +5°C (+4.7*)
Ветер: южный 1 м/с
Давление: *762 мм
не опр.
Время (МСК)Темп. СВетерВлажностьДавлениеОблачностьОсадки
21:00+11Штиль 93%1018 гПаоблачно
22:00+10Штиль 95%1017 гПас прояснениями
23:00+9Штиль 96%1017 гПас прояснениями
27 июня
00:00+8Штиль 97%1017 гПас прояснениями
01:00+8ЮВ, 1 м/с97%1017 гПаоблачно
02:00+8Штиль 98%1017 гПаоблачно
03:00+8ЮВ, 1 м/с98%1017 гПаоблачно
04:00+8ЮВ, 1 м/с99%1016 гПаоблачно
05:00+8Штиль 99%1016 гПас прояснениями
06:00+10В, 1 м/с92%1015 гПамалооблачно
07:00+13ЮВ, 1 м/с79%1015 гПамалооблачно
08:00+16ЮВ, 1 м/с51%1014 гПамалооблачно
09:00+17В, 1 м/с41%1014 гПамалооблачно
10:00+18В, 1 м/с38%1013 гПамалооблачно
11:00+19ЮВ, 1 м/с37%1013 гПаоблачно
12:00+20ЮВ, 1 м/с35%1012 гПаоблачно
13:00+20ЮВ, 1 м/с34%1012 гПас прояснениями
14:00+21ЮВ, 1 м/с33%1011 гПаоблачно
15:00+21ЮВ, 1 м/с34%1010 гПаоблачно
16:00+21ЮВ, 1 м/с34%1009 гПаоблачно
17:00+21В, 1 м/с34%1009 гПаоблачно
18:00+20В, 1 м/с36%1009 гПаоблачно
19:00+19В, 1 м/с43%1008 гПаоблачно
20:00+17СВ, 1 м/с71%1008 гПаясно
21:00+14СВ, 1 м/с82%1008 гПамалооблачно
22:00+12СВ, 1 м/с92%1008 гПаясно
23:00+12СВ, 2 м/с88%1007 гПаясно
28 июня
00:00+12В, 2 м/с86%1007 гПамалооблачно
01:00+12В, 2 м/с85%1007 гПаясно
02:00+11В, 2 м/с89%1007 гПас прояснениями
03:00+11В, 2 м/с92%1007 гПаоблачно
04:00+11СВ, 2 м/с94%1006 гПамалооблачно
05:00+12В, 2 м/с88%1006 гПамалооблачно
06:00+15В, 2 м/с77%1006 гПаоблачно
07:00+16В, 2 м/с67%1005 гПаоблачно
08:00+19В, 3 м/с55%1005 гПаоблачно
09:00+20В, 4 м/с44%1004 гПаоблачно
10:00+21В, 5 м/с39%1003 гПаоблачно
11:00+22В, 5 м/с39%1002 гПаоблачно
12:00+23В, 5 м/с35%1001 гПаоблачно
13:00+22В, 5 м/с36%1001 гПаоблачно
14:00+23В, 5 м/с36%1001 гПаоблачно
15:00+22В, 5 м/с36%1000 гПаоблачно
16:00+21В, 4 м/с40%1000 гПаоблачносл. дождь
17:00+19В, 2 м/с64%999 гПаоблачнодождь
18:00+16СВ, 2 м/с89%999 гПаоблачнодождь
19:00+16СВ, 2 м/с95%999 гПаоблачнодождь
20:00+15СВ, 3 м/с92%998 гПаоблачнодождь
21:00+15СВ, 3 м/с92%998 гПаоблачно